Portada
METAR-TAF:

METAR-TAF

Aeropuertos :

Istres, Francia

latitud: 43-31N, longitud: 004-56E, altitud: 23 m

Observación

El informe se hizo hace 11 minutos, a las 09:00 UTC
Viento 4 kt del sur-suroeste, variando entre sureste y oeste-suroeste
Temperatura 18°C
Humedad 59%
Presión 1019 hPa
Visibilidad 10 km o más
sin nubes por debajo de 1500 m y sin presencia de cumulonimbus.

METAR: LFMI 240900Z AUTO 21004KT 140V250 CAVOK 18/10 Q1019 BECMG 16015KT

Hora: 11:11 (09:11 UTC)

Pronóstico

El informe se hizo hace 1 hora y 11 minutos, a las 08:00 UTC
Pronóstico válido del 24 a las 09 UTC al 25 a las 09 UTC
Viento 15 kt del sur-sureste
Visibilidad 10 km o más
sin nubes por debajo de 1500 m y sin presencia de cumulonimbus.

TAF: LFMI 240800Z 2409/2509 16015KT CAVOK

Observaciones y pronósticos meteorológicos de más de 4000 aeropuertos (mensajes METAR y TAF).

Los puntos amarillos y rojos representan las estaciones disponibles.

Ponga el ratón en el punto deseado para ver el nombre de la estación.

Haga clic para ver las observaciones y los pronósticos meteorológicos.

Para cambiar el mapa : haga clic en los botones verdes con una cruz de color negro para hacer un zoom, en el botón verde con un guión para alejar o en las flechas verdes para mapas adyacentes.


METAR-TAF: